<?xml version="1.0" encoding="UTF-8" standalone="no" ?><gpx xmlns="http://www.topografix.com/GPX/1/1" xmlns:gpxx="http://www.garmin.com/xmlschemas/GpxExtensions/v3" xmlns:wptx1="http://www.garmin.com/xmlschemas/WaypointExtension/v1" xmlns:gpxtpx="http://www.garmin.com/xmlschemas/TrackPointExtension/v1" creator="Dakota 20" version="1.1" xmlns:xsi="http://www.w3.org/2001/XMLSchema-instance" xsi:schemaLocation="http://www.topografix.com/GPX/1/1 http://www.topografix.com/GPX/1/1/gpx.xsd http://www.garmin.com/xmlschemas/GpxExtensions/v3 http://www8.garmin.com/xmlschemas/GpxExtensionsv3.xsd http://www.garmin.com/xmlschemas/WaypointExtension/v1 http://www8.garmin.com/xmlschemas/WaypointExtensionv1.xsd http://www.garmin.com/xmlschemas/TrackPointExtension/v1 http://www.garmin.com/xmlschemas/TrackPointExtensionv1.xsd"><metadata><link href="http://www.garmin.com"><text>Garmin International</text></link><time>2012-01-25T15:44:40Z</time></metadata><trk><name>Current Track: 25 JAN 2012 09:58</name><extensions><gpxx:TrackExtension><gpxx:DisplayColor>Black</gpxx:DisplayColor></gpxx:TrackExtension></extensions><trkseg><trkpt lat="51.9627946615" lon="-1.8727702182"><ele>219.80</ele><time>2012-01-25T09:58:31Z</time></trkpt><trkpt lat="51.9627946615" lon="-1.8727702182"><ele>218.36</ele><time>2012-01-25T09:58:58Z</time></trkpt><trkpt lat="51.9627942424" lon="-1.8727681227"><ele>218.36</ele><time>2012-01-25T09:59:28Z</time></trkpt><trkpt lat="51.9627934881" lon="-1.8727682903"><ele>218.84</ele><time>2012-01-25T10:00:00Z</time></trkpt><trkpt lat="51.9627934881" lon="-1.8727682903"><ele>218.84</ele><time>2012-01-25T10:00:27Z</time></trkpt><trkpt lat="51.9627944101" lon="-1.8727656081"><ele>219.32</ele><time>2012-01-25T10:00:46Z</time></trkpt><trkpt lat="51.9627949130" lon="-1.8727661949"><ele>219.32</ele><time>2012-01-25T10:01:11Z</time></trkpt><trkpt lat="51.9628103357" lon="-1.8727366067"><ele>219.32</ele><time>2012-01-25T10:01:40Z</time></trkpt><trkpt lat="51.9627844356" lon="-1.8725782726"><ele>218.36</ele><time>2012-01-25T10:01:55Z</time></trkpt><trkpt lat="51.9628136046" lon="-1.8723636959"><ele>219.32</ele><time>2012-01-25T10:02:12Z</time></trkpt><trkpt lat="51.9628949091" lon="-1.8721846584"><ele>219.80</ele><time>2012-01-25T10:02:25Z</time></trkpt><trkpt lat="51.9628415164" lon="-1.8719874322"><ele>218.84</ele><time>2012-01-25T10:02:42Z</time></trkpt><trkpt lat="51.9628096651" lon="-1.8719616998"><ele>218.36</ele><time>2012-01-25T10:02:46Z</time></trkpt><trkpt lat="51.9626537617" lon="-1.8717931397"><ele>217.88</ele><time>2012-01-25T10:03:02Z</time></trkpt><trkpt lat="51.9625404384" lon="-1.8716710154"><ele>218.36</ele><time>2012-01-25T10:03:15Z</time></trkpt><trkpt lat="51.9624311384" lon="-1.8715470470"><ele>218.36</ele><time>2012-01-25T10:03:27Z</time></trkpt><trkpt lat="51.9623129535" lon="-1.8714126851"><ele>218.84</ele><time>2012-01-25T10:03:41Z</time></trkpt><trkpt lat="51.9622256141" lon="-1.8712752219"><ele>219.80</ele><time>2012-01-25T10:03:54Z</time></trkpt><trkpt lat="51.9621148054" lon="-1.8710272014"><ele>219.80</ele><time>2012-01-25T10:04:12Z</time></trkpt><trkpt lat="51.9620811939" lon="-1.8709506746"><ele>219.80</ele><time>2012-01-25T10:04:18Z</time></trkpt><trkpt lat="51.9619883224" lon="-1.8707164004"><ele>220.76</ele><time>2012-01-25T10:04:34Z</time></trkpt><trkpt lat="51.9619320799" lon="-1.8705151509"><ele>221.24</ele><time>2012-01-25T10:04:50Z</time></trkpt><trkpt lat="51.9618663657" lon="-1.8702299986"><ele>221.24</ele><time>2012-01-25T10:05:09Z</time></trkpt><trkpt lat="51.9618195947" lon="-1.8699609395"><ele>221.72</ele><time>2012-01-25T10:05:26Z</time></trkpt><trkpt lat="51.9617843907" lon="-1.8697050400"><ele>221.24</ele><time>2012-01-25T10:05:43Z</time></trkpt><trkpt lat="51.9617560599" lon="-1.8693914730"><ele>222.20</ele><time>2012-01-25T10:06:01Z</time></trkpt><trkpt lat="51.9616531301" lon="-1.8690342363"><ele>221.72</ele><time>2012-01-25T10:06:21Z</time></trkpt><trkpt lat="51.9615954626" lon="-1.8688336574"><ele>221.72</ele><time>2012-01-25T10:06:36Z</time></trkpt><trkpt lat="51.9614801276" lon="-1.8689136207"><ele>220.76</ele><time>2012-01-25T10:06:52Z</time></trkpt><trkpt lat="51.9614333566" lon="-1.8688344955"><ele>220.28</ele><time>2012-01-25T10:07:03Z</time></trkpt><trkpt lat="51.9613352884" lon="-1.8686453998"><ele>220.28</ele><time>2012-01-25T10:07:17Z</time></trkpt><trkpt lat="51.9612591807" lon="-1.8684930168"><ele>219.32</ele><time>2012-01-25T10:07:33Z</time></trkpt><trkpt lat="51.9612064585" lon="-1.8683571462"><ele>217.88</ele><time>2012-01-25T10:07:47Z</time></trkpt><trkpt lat="51.9610817358" lon="-1.8681470957"><ele>217.88</ele><time>2012-01-25T10:08:04Z</time></trkpt><trkpt lat="51.9609553367" lon="-1.8680984806"><ele>218.84</ele><time>2012-01-25T10:08:23Z</time></trkpt><trkpt lat="51.9609327894" lon="-1.8681284878"><ele>219.32</ele><time>2012-01-25T10:08:29Z</time></trkpt><trkpt lat="51.9608710147" lon="-1.8681225367"><ele>220.28</ele><time>2012-01-25T10:08:47Z</time></trkpt><trkpt lat="51.9608198851" lon="-1.8681496941"><ele>220.28</ele><time>2012-01-25T10:09:04Z</time></trkpt><trkpt lat="51.9606612995" lon="-1.8682538811"><ele>220.28</ele><time>2012-01-25T10:09:19Z</time></trkpt><trkpt lat="51.9605571963" lon="-1.8683180027"><ele>221.24</ele><time>2012-01-25T10:09:30Z</time></trkpt><trkpt lat="51.9604043104" lon="-1.8684234470"><ele>219.32</ele><time>2012-01-25T10:09:46Z</time></trkpt><trkpt lat="51.9603554439" lon="-1.8684704695"><ele>220.28</ele><time>2012-01-25T10:09:51Z</time></trkpt><trkpt lat="51.9601893146" lon="-1.8685565516"><ele>219.80</ele><time>2012-01-25T10:10:08Z</time></trkpt><trkpt lat="51.9600172341" lon="-1.8686923385"><ele>219.80</ele><time>2012-01-25T10:10:25Z</time></trkpt><trkpt lat="51.9598533679" lon="-1.8688165583"><ele>218.84</ele><time>2012-01-25T10:10:41Z</time></trkpt><trkpt lat="51.9597772602" lon="-1.8688900676"><ele>218.84</ele><time>2012-01-25T10:10:51Z</time></trkpt><trkpt lat="51.9596405514" lon="-1.8690498266"><ele>218.84</ele><time>2012-01-25T10:11:06Z</time></trkpt><trkpt lat="51.9594866596" lon="-1.8692716118"><ele>218.36</ele><time>2012-01-25T10:11:24Z</time></trkpt><trkpt lat="51.9593782816" lon="-1.8694015313"><ele>217.88</ele><time>2012-01-25T10:11:37Z</time></trkpt><trkpt lat="51.9593235478" lon="-1.8694492243"><ele>218.36</ele><time>2012-01-25T10:11:53Z</time></trkpt><trkpt lat="51.9592954684" lon="-1.8694633059"><ele>218.36</ele><time>2012-01-25T10:12:03Z</time></trkpt><trkpt lat="51.9591873419" lon="-1.8694973364"><ele>218.36</ele><time>2012-01-25T10:12:12Z</time></trkpt><trkpt lat="51.9590590987" lon="-1.8694364838"><ele>218.36</ele><time>2012-01-25T10:12:29Z</time></trkpt><trkpt lat="51.9589778781" lon="-1.8693872821"><ele>217.40</ele><time>2012-01-25T10:12:42Z</time></trkpt><trkpt lat="51.9589208812" lon="-1.8693389185"><ele>217.40</ele><time>2012-01-25T10:12:48Z</time></trkpt><trkpt lat="51.9587343838" lon="-1.8693234120"><ele>217.40</ele><time>2012-01-25T10:13:06Z</time></trkpt><trkpt lat="51.9585102517" lon="-1.8693516590"><ele>217.40</ele><time>2012-01-25T10:13:25Z</time></trkpt><trkpt lat="51.9583328906" lon="-1.8693663273"><ele>217.88</ele><time>2012-01-25T10:13:40Z</time></trkpt><trkpt lat="51.9581305515" lon="-1.8693857733"><ele>217.40</ele><time>2012-01-25T10:13:57Z</time></trkpt><trkpt lat="51.9579360913" lon="-1.8693856895"><ele>216.43</ele><time>2012-01-25T10:14:13Z</time></trkpt><trkpt lat="51.9578248635" lon="-1.8693956640"><ele>216.43</ele><time>2012-01-25T10:14:23Z</time></trkpt><trkpt lat="51.9576503523" lon="-1.8694139365"><ele>215.95</ele><time>2012-01-25T10:14:38Z</time></trkpt><trkpt lat="51.9574928563" lon="-1.8694292754"><ele>214.99</ele><time>2012-01-25T10:14:54Z</time></trkpt><trkpt lat="51.9572807942" lon="-1.8693902157"><ele>215.47</ele><time>2012-01-25T10:15:13Z</time></trkpt><trkpt lat="51.9571772777" lon="-1.8693896290"><ele>214.99</ele><time>2012-01-25T10:15:28Z</time></trkpt><trkpt lat="51.9571306743" lon="-1.8693942390"><ele>215.47</ele><time>2012-01-25T10:15:44Z</time></trkpt><trkpt lat="51.9570136629" lon="-1.8693484738"><ele>214.99</ele><time>2012-01-25T10:16:00Z</time></trkpt><trkpt lat="51.9568155985" lon="-1.8692789879"><ele>214.51</ele><time>2012-01-25T10:16:19Z</time></trkpt><trkpt lat="51.9567955658" lon="-1.8692712765"><ele>214.51</ele><time>2012-01-25T10:16:21Z</time></trkpt><trkpt lat="51.9566517323" lon="-1.8691799138"><ele>214.51</ele><time>2012-01-25T10:16:35Z</time></trkpt><trkpt lat="51.9564669952" lon="-1.8690194841"><ele>213.55</ele><time>2012-01-25T10:16:53Z</time></trkpt><trkpt lat="51.9563034642" lon="-1.8689007964"><ele>213.55</ele><time>2012-01-25T10:17:10Z</time></trkpt><trkpt lat="51.9562915619" lon="-1.8688943423"><ele>213.07</ele><time>2012-01-25T10:17:14Z</time></trkpt><trkpt lat="51.9562415220" lon="-1.8688766565"><ele>212.59</ele><time>2012-01-25T10:17:18Z</time></trkpt><trkpt lat="51.9561450463" lon="-1.8687837012"><ele>212.59</ele><time>2012-01-25T10:17:29Z</time></trkpt><trkpt lat="51.9560521748" lon="-1.8686792627"><ele>212.11</ele><time>2012-01-25T10:17:39Z</time></trkpt><trkpt lat="51.9558989536" lon="-1.8685415480"><ele>210.67</ele><time>2012-01-25T10:17:55Z</time></trkpt><trkpt lat="51.9558683597" lon="-1.8685024884"><ele>210.67</ele><time>2012-01-25T10:17:59Z</time></trkpt><trkpt lat="51.9556932617" lon="-1.8683199305"><ele>209.70</ele><time>2012-01-25T10:18:18Z</time></trkpt><trkpt lat="51.9555951096" lon="-1.8682650290"><ele>209.70</ele><time>2012-01-25T10:18:34Z</time></trkpt><trkpt lat="51.9555211812" lon="-1.8682361115"><ele>209.70</ele><time>2012-01-25T10:18:49Z</time></trkpt><trkpt lat="51.9554540422" lon="-1.8683152366"><ele>210.19</ele><time>2012-01-25T10:19:01Z</time></trkpt><trkpt lat="51.9553660322" lon="-1.8684658594"><ele>209.70</ele><time>2012-01-25T10:19:16Z</time></trkpt><trkpt lat="51.9553445745" lon="-1.8685084395"><ele>209.70</ele><time>2012-01-25T10:19:19Z</time></trkpt><trkpt lat="51.9552187622" lon="-1.8686935119"><ele>209.70</ele><time>2012-01-25T10:19:35Z</time></trkpt><trkpt lat="51.9551147427" lon="-1.8687828630"><ele>209.70</ele><time>2012-01-25T10:19:46Z</time></trkpt><trkpt lat="51.9549279939" lon="-1.8688733876"><ele>208.74</ele><time>2012-01-25T10:20:06Z</time></trkpt><trkpt lat="51.9548485335" lon="-1.8689108547"><ele>208.74</ele><time>2012-01-25T10:20:15Z</time></trkpt><trkpt lat="51.9546759501" lon="-1.8689502496"><ele>209.22</ele><time>2012-01-25T10:20:32Z</time></trkpt><trkpt lat="51.9544828311" lon="-1.8689362518"><ele>208.26</ele><time>2012-01-25T10:20:51Z</time></trkpt><trkpt lat="51.9543081522" lon="-1.8689553626"><ele>208.74</ele><time>2012-01-25T10:21:07Z</time></trkpt><trkpt lat="51.9541124348" lon="-1.8690043129"><ele>208.26</ele><time>2012-01-25T10:21:25Z</time></trkpt><trkpt lat="51.9539051503" lon="-1.8690375052"><ele>208.26</ele><time>2012-01-25T10:21:42Z</time></trkpt><trkpt lat="51.9536571298" lon="-1.8690612260"><ele>208.74</ele><time>2012-01-25T10:22:02Z</time></trkpt><trkpt lat="51.9535652641" lon="-1.8690918200"><ele>209.22</ele><time>2012-01-25T10:22:19Z</time></trkpt><trkpt lat="51.9535172358" lon="-1.8690799177"><ele>208.74</ele><time>2012-01-25T10:22:36Z</time></trkpt><trkpt lat="51.9533144776" lon="-1.8690970168"><ele>208.26</ele><time>2012-01-25T10:22:54Z</time></trkpt><trkpt lat="51.9531378709" lon="-1.8691320531"><ele>207.78</ele><time>2012-01-25T10:23:12Z</time></trkpt><trkpt lat="51.9529461768" lon="-1.8691353220"><ele>208.26</ele><time>2012-01-25T10:23:31Z</time></trkpt><trkpt lat="51.9527951349" lon="-1.8691452965"><ele>207.78</ele><time>2012-01-25T10:23:46Z</time></trkpt><trkpt lat="51.9526904449" lon="-1.8691590428"><ele>208.26</ele><time>2012-01-25T10:23:58Z</time></trkpt><trkpt lat="51.9526235573" lon="-1.8691541813"><ele>207.78</ele><time>2012-01-25T10:24:04Z</time></trkpt><trkpt lat="51.9524996728" lon="-1.8691665865"><ele>207.30</ele><time>2012-01-25T10:24:20Z</time></trkpt><trkpt lat="51.9524329528" lon="-1.8692273553"><ele>207.78</ele><time>2012-01-25T10:24:35Z</time></trkpt><trkpt lat="51.9524158537" lon="-1.8692069035"><ele>207.30</ele><time>2012-01-25T10:24:51Z</time></trkpt><trkpt lat="51.9523625448" lon="-1.8691741303"><ele>206.82</ele><time>2012-01-25T10:24:57Z</time></trkpt><trkpt lat="51.9521739520" lon="-1.8691618927"><ele>206.82</ele><time>2012-01-25T10:25:17Z</time></trkpt><trkpt lat="51.9520192221" lon="-1.8691197317"><ele>206.34</ele><time>2012-01-25T10:25:34Z</time></trkpt><trkpt lat="51.9518970139" lon="-1.8690630700"><ele>206.82</ele><time>2012-01-25T10:25:48Z</time></trkpt><trkpt lat="51.9517199881" lon="-1.8689455558"><ele>206.34</ele><time>2012-01-25T10:26:05Z</time></trkpt><trkpt lat="51.9515744783" lon="-1.8688412011"><ele>206.34</ele><time>2012-01-25T10:26:21Z</time></trkpt><trkpt lat="51.9514409546" lon="-1.8686934281"><ele>206.34</ele><time>2012-01-25T10:26:38Z</time></trkpt><trkpt lat="51.9514251128" lon="-1.8686982058"><ele>205.86</ele><time>2012-01-25T10:26:56Z</time></trkpt><trkpt lat="51.9513585605" lon="-1.8686122075"><ele>205.86</ele><time>2012-01-25T10:27:21Z</time></trkpt><trkpt lat="51.9512689579" lon="-1.8683895003"><ele>204.90</ele><time>2012-01-25T10:27:36Z</time></trkpt><trkpt lat="51.9512097817" lon="-1.8682796974"><ele>204.42</ele><time>2012-01-25T10:27:52Z</time></trkpt><trkpt lat="51.9510994758" lon="-1.8683344312"><ele>203.46</ele><time>2012-01-25T10:28:10Z</time></trkpt><trkpt lat="51.9508695602" lon="-1.8685080204"><ele>202.01</ele><time>2012-01-25T10:28:29Z</time></trkpt><trkpt lat="51.9507461786" lon="-1.8686319888"><ele>200.09</ele><time>2012-01-25T10:28:47Z</time></trkpt><trkpt lat="51.9506319333" lon="-1.8687640876"><ele>198.17</ele><time>2012-01-25T10:29:06Z</time></trkpt><trkpt lat="51.9504682347" lon="-1.8689737190"><ele>196.73</ele><time>2012-01-25T10:29:24Z</time></trkpt><trkpt lat="51.9503733516" lon="-1.8691230007"><ele>196.25</ele><time>2012-01-25T10:29:42Z</time></trkpt><trkpt lat="51.9502783008" lon="-1.8691636529"><ele>195.77</ele><time>2012-01-25T10:29:57Z</time></trkpt><trkpt lat="51.9500653166" lon="-1.8690450490"><ele>195.28</ele><time>2012-01-25T10:30:17Z</time></trkpt><trkpt lat="51.9499008637" lon="-1.8688764889"><ele>198.17</ele><time>2012-01-25T10:30:38Z</time></trkpt><trkpt lat="51.9497483131" lon="-1.8686735630"><ele>199.61</ele><time>2012-01-25T10:30:58Z</time></trkpt><trkpt lat="51.9495941699" lon="-1.8687447254"><ele>200.57</ele><time>2012-01-25T10:31:11Z</time></trkpt><trkpt lat="51.9495058246" lon="-1.8689093459"><ele>202.01</ele><time>2012-01-25T10:31:28Z</time></trkpt><trkpt lat="51.9494904019" lon="-1.8689729646"><ele>202.49</ele><time>2012-01-25T10:31:45Z</time></trkpt><trkpt lat="51.9494676869" lon="-1.8689403590"><ele>202.01</ele><time>2012-01-25T10:32:02Z</time></trkpt><trkpt lat="51.9494319800" lon="-1.8689119443"><ele>202.01</ele><time>2012-01-25T10:32:22Z</time></trkpt><trkpt lat="51.9492961094" lon="-1.8691281974"><ele>203.94</ele><time>2012-01-25T10:32:41Z</time></trkpt><trkpt lat="51.9491998013" lon="-1.8692727853"><ele>204.42</ele><time>2012-01-25T10:32:56Z</time></trkpt><trkpt lat="51.9490853883" lon="-1.8694402557"><ele>205.38</ele><time>2012-01-25T10:33:13Z</time></trkpt><trkpt lat="51.9489773456" lon="-1.8695819099"><ele>205.38</ele><time>2012-01-25T10:33:27Z</time></trkpt><trkpt lat="51.9489197619" lon="-1.8696385715"><ele>205.86</ele><time>2012-01-25T10:33:31Z</time></trkpt><trkpt lat="51.9488086179" lon="-1.8697370589"><ele>205.86</ele><time>2012-01-25T10:33:51Z</time></trkpt><trkpt lat="51.9487130642" lon="-1.8698654696"><ele>206.34</ele><time>2012-01-25T10:34:03Z</time></trkpt><trkpt lat="51.9485483598" lon="-1.8699699920"><ele>206.34</ele><time>2012-01-25T10:34:21Z</time></trkpt><trkpt lat="51.9484051969" lon="-1.8700940441"><ele>207.30</ele><time>2012-01-25T10:34:41Z</time></trkpt><trkpt lat="51.9483775366" lon="-1.8701582495"><ele>207.30</ele><time>2012-01-25T10:34:57Z</time></trkpt><trkpt lat="51.9483610243" lon="-1.8701538909"><ele>207.30</ele><time>2012-01-25T10:35:16Z</time></trkpt><trkpt lat="51.9483473618" lon="-1.8701709062"><ele>205.86</ele><time>2012-01-25T10:35:20Z</time></trkpt><trkpt lat="51.9482054561" lon="-1.8702785298"><ele>206.34</ele><time>2012-01-25T10:35:39Z</time></trkpt><trkpt lat="51.9481218886" lon="-1.8703633547"><ele>206.82</ele><time>2012-01-25T10:35:57Z</time></trkpt><trkpt lat="51.9481100701" lon="-1.8703937810"><ele>206.34</ele><time>2012-01-25T10:36:00Z</time></trkpt><trkpt lat="51.9480530731" lon="-1.8705239519"><ele>207.78</ele><time>2012-01-25T10:36:13Z</time></trkpt><trkpt lat="51.9480052125" lon="-1.8706456572"><ele>208.26</ele><time>2012-01-25T10:36:20Z</time></trkpt><trkpt lat="51.9479138497" lon="-1.8709380180"><ele>208.74</ele><time>2012-01-25T10:36:39Z</time></trkpt><trkpt lat="51.9478838425" lon="-1.8710668478"><ele>209.22</ele><time>2012-01-25T10:36:47Z</time></trkpt><trkpt lat="51.9478653185" lon="-1.8712403532"><ele>209.70</ele><time>2012-01-25T10:36:59Z</time></trkpt><trkpt lat="51.9478322100" lon="-1.8714151997"><ele>210.67</ele><time>2012-01-25T10:37:14Z</time></trkpt><trkpt lat="51.9478239119" lon="-1.8714346457"><ele>211.15</ele><time>2012-01-25T10:37:16Z</time></trkpt><trkpt lat="51.9477709383" lon="-1.8717379030"><ele>212.59</ele><time>2012-01-25T10:37:34Z</time></trkpt><trkpt lat="51.9477143604" lon="-1.8720426690"><ele>214.03</ele><time>2012-01-25T10:37:52Z</time></trkpt><trkpt lat="51.9476266857" lon="-1.8723521288"><ele>216.43</ele><time>2012-01-25T10:38:12Z</time></trkpt><trkpt lat="51.9475659169" lon="-1.8726231158"><ele>217.40</ele><time>2012-01-25T10:38:29Z</time></trkpt><trkpt lat="51.9474710338" lon="-1.8729673605"><ele>219.80</ele><time>2012-01-25T10:38:50Z</time></trkpt><trkpt lat="51.9474142883" lon="-1.8731965218"><ele>221.24</ele><time>2012-01-25T10:39:07Z</time></trkpt><trkpt lat="51.9473082572" lon="-1.8735053949"><ele>224.12</ele><time>2012-01-25T10:39:29Z</time></trkpt><trkpt lat="51.9472292159" lon="-1.8736174610"><ele>225.09</ele><time>2012-01-25T10:39:47Z</time></trkpt><trkpt lat="51.9471563771" lon="-1.8739210535"><ele>227.49</ele><time>2012-01-25T10:40:07Z</time></trkpt><trkpt lat="51.9470750727" lon="-1.8742926233"><ele>229.89</ele><time>2012-01-25T10:40:26Z</time></trkpt><trkpt lat="51.9469977915" lon="-1.8745284900"><ele>232.30</ele><time>2012-01-25T10:40:46Z</time></trkpt><trkpt lat="51.9469740707" lon="-1.8746163324"><ele>232.78</ele><time>2012-01-25T10:40:54Z</time></trkpt><trkpt lat="51.9469584804" lon="-1.8746993970"><ele>234.22</ele><time>2012-01-25T10:41:00Z</time></trkpt><trkpt lat="51.9469350949" lon="-1.8747294042"><ele>235.18</ele><time>2012-01-25T10:41:10Z</time></trkpt><trkpt lat="51.9468537066" lon="-1.8750427198"><ele>237.58</ele><time>2012-01-25T10:41:27Z</time></trkpt><trkpt lat="51.9468036667" lon="-1.8752546143"><ele>239.02</ele><time>2012-01-25T10:41:40Z</time></trkpt><trkpt lat="51.9467432331" lon="-1.8755073287"><ele>242.39</ele><time>2012-01-25T10:41:55Z</time></trkpt><trkpt lat="51.9466773514" lon="-1.8756933231"><ele>244.31</ele><time>2012-01-25T10:42:09Z</time></trkpt><trkpt lat="51.9466712326" lon="-1.8757418543"><ele>244.79</ele><time>2012-01-25T10:42:13Z</time></trkpt><trkpt lat="51.9466115534" lon="-1.8759690877"><ele>246.72</ele><time>2012-01-25T10:42:29Z</time></trkpt><trkpt lat="51.9465893414" lon="-1.8761009350"><ele>248.16</ele><time>2012-01-25T10:42:42Z</time></trkpt><trkpt lat="51.9465358648" lon="-1.8763231393"><ele>249.60</ele><time>2012-01-25T10:42:58Z</time></trkpt><trkpt lat="51.9464127347" lon="-1.8766255584"><ele>250.56</ele><time>2012-01-25T10:43:14Z</time></trkpt><trkpt lat="51.9463284127" lon="-1.8768661190"><ele>252.00</ele><time>2012-01-25T10:43:30Z</time></trkpt><trkpt lat="51.9462231360" lon="-1.8771326635"><ele>252.96</ele><time>2012-01-25T10:43:48Z</time></trkpt><trkpt lat="51.9461455196" lon="-1.8772096094"><ele>254.89</ele><time>2012-01-25T10:44:05Z</time></trkpt><trkpt lat="51.9461404905" lon="-1.8772286363"><ele>254.41</ele><time>2012-01-25T10:44:25Z</time></trkpt><trkpt lat="51.9461412448" lon="-1.8772330787"><ele>253.93</ele><time>2012-01-25T10:44:50Z</time></trkpt><trkpt lat="51.9461208768" lon="-1.8771802727"><ele>254.41</ele><time>2012-01-25T10:45:11Z</time></trkpt><trkpt lat="51.9460876007" lon="-1.8771179952"><ele>254.41</ele><time>2012-01-25T10:45:33Z</time></trkpt><trkpt lat="51.9460875168" lon="-1.8770851381"><ele>253.93</ele><time>2012-01-25T10:46:01Z</time></trkpt><trkpt lat="51.9460875168" lon="-1.8770851381"><ele>254.41</ele><time>2012-01-25T10:46:24Z</time></trkpt><trkpt lat="51.9460979942" lon="-1.8771045003"><ele>253.93</ele><time>2012-01-25T10:46:49Z</time></trkpt><trkpt lat="51.9460979942" lon="-1.8771045003"><ele>254.41</ele><time>2012-01-25T10:47:11Z</time></trkpt><trkpt lat="51.9460961502" lon="-1.8771148100"><ele>253.44</ele><time>2012-01-25T10:47:34Z</time></trkpt><trkpt lat="51.9460961502" lon="-1.8771148100"><ele>253.93</ele><time>2012-01-25T10:47:57Z</time></trkpt><trkpt lat="51.9461019337" lon="-1.8771914206"><ele>253.93</ele><time>2012-01-25T10:48:19Z</time></trkpt><trkpt lat="51.9461019337" lon="-1.8771914206"><ele>253.93</ele><time>2012-01-25T10:48:40Z</time></trkpt><trkpt lat="51.9460964017" lon="-1.8771844637"><ele>253.93</ele><time>2012-01-25T10:49:04Z</time></trkpt><trkpt lat="51.9461021852" lon="-1.8771778420"><ele>253.93</ele><time>2012-01-25T10:49:25Z</time></trkpt><trkpt lat="51.9461021852" lon="-1.8771778420"><ele>254.41</ele><time>2012-01-25T10:49:52Z</time></trkpt><trkpt lat="51.9461008441" lon="-1.8771750759"><ele>253.44</ele><time>2012-01-25T10:50:17Z</time></trkpt><trkpt lat="51.9461052027" lon="-1.8771912530"><ele>253.93</ele><time>2012-01-25T10:50:42Z</time></trkpt><trkpt lat="51.9461052027" lon="-1.8771912530"><ele>252.96</ele><time>2012-01-25T10:51:09Z</time></trkpt><trkpt lat="51.9460999221" lon="-1.8771976233"><ele>253.44</ele><time>2012-01-25T10:51:36Z</time></trkpt><trkpt lat="51.9461090583" lon="-1.8772122916"><ele>253.44</ele><time>2012-01-25T10:52:02Z</time></trkpt><trkpt lat="51.9461090583" lon="-1.8772122916"><ele>252.96</ele><time>2012-01-25T10:52:29Z</time></trkpt><trkpt lat="51.9461129978" lon="-1.8772135489"><ele>252.96</ele><time>2012-01-25T10:52:53Z</time></trkpt><trkpt lat="51.9461232238" lon="-1.8772189971"><ele>253.93</ele><time>2012-01-25T10:53:19Z</time></trkpt><trkpt lat="51.9461232238" lon="-1.8772189971"><ele>252.96</ele><time>2012-01-25T10:53:46Z</time></trkpt><trkpt lat="51.9461234752" lon="-1.8772143032"><ele>252.48</ele><time>2012-01-25T10:54:06Z</time></trkpt><trkpt lat="51.9461234752" lon="-1.8772143032"><ele>252.48</ele><time>2012-01-25T10:54:29Z</time></trkpt><trkpt lat="51.9460762013" lon="-1.8771538697"><ele>252.96</ele><time>2012-01-25T10:54:42Z</time></trkpt><trkpt lat="51.9460457750" lon="-1.8771324959"><ele>252.96</ele><time>2012-01-25T10:54:44Z</time></trkpt><trkpt lat="51.9458340481" lon="-1.8769998103"><ele>252.48</ele><time>2012-01-25T10:54:58Z</time></trkpt><trkpt lat="51.9457788952" lon="-1.8769736588"><ele>252.96</ele><time>2012-01-25T10:55:17Z</time></trkpt><trkpt lat="51.9457788952" lon="-1.8769736588"><ele>252.96</ele><time>2012-01-25T10:55:35Z</time></trkpt><trkpt lat="51.9457764644" lon="-1.8769766763"><ele>252.96</ele><time>2012-01-25T10:55:50Z</time></trkpt><trkpt lat="51.9457764644" lon="-1.8769766763"><ele>252.48</ele><time>2012-01-25T10:56:11Z</time></trkpt><trkpt lat="51.9457853492" lon="-1.8769815378"><ele>252.96</ele><time>2012-01-25T10:56:24Z</time></trkpt><trkpt lat="51.9458184578" lon="-1.8770183343"><ele>252.96</ele><time>2012-01-25T10:56:37Z</time></trkpt><trkpt lat="51.9458335452" lon="-1.8770273868"><ele>252.48</ele><time>2012-01-25T10:56:44Z</time></trkpt><trkpt lat="51.9459539931" lon="-1.8770928495"><ele>252.48</ele><time>2012-01-25T10:56:58Z</time></trkpt><trkpt lat="51.9459987525" lon="-1.8771325797"><ele>253.44</ele><time>2012-01-25T10:57:10Z</time></trkpt><trkpt lat="51.9460345432" lon="-1.8771954440"><ele>252.48</ele><time>2012-01-25T10:57:31Z</time></trkpt><trkpt lat="51.9460555818" lon="-1.8772432208"><ele>252.48</ele><time>2012-01-25T10:57:46Z</time></trkpt><trkpt lat="51.9460555818" lon="-1.8772432208"><ele>252.00</ele><time>2012-01-25T10:58:15Z</time></trkpt><trkpt lat="51.9460522290" lon="-1.8772477470"><ele>252.48</ele><time>2012-01-25T10:58:43Z</time></trkpt><trkpt lat="51.9460617844" lon="-1.8772565480"><ele>249.12</ele><time>2012-01-25T10:59:14Z</time></trkpt><trkpt lat="51.9460617844" lon="-1.8772565480"><ele>252.96</ele><time>2012-01-25T10:59:15Z</time></trkpt><trkpt lat="51.9460549112" lon="-1.8772575539"><ele>251.52</ele><time>2012-01-25T10:59:33Z</time></trkpt><trkpt lat="51.9460549112" lon="-1.8772575539"><ele>252.00</ele><time>2012-01-25T11:00:00Z</time></trkpt><trkpt lat="51.9460621197" lon="-1.8772655167"><ele>251.04</ele><time>2012-01-25T11:00:29Z</time></trkpt><trkpt lat="51.9460654724" lon="-1.8772698753"><ele>251.52</ele><time>2012-01-25T11:00:55Z</time></trkpt><trkpt lat="51.9460654724" lon="-1.8772698753"><ele>251.52</ele><time>2012-01-25T11:01:08Z</time></trkpt><trkpt lat="51.9460667297" lon="-1.8772688694"><ele>251.52</ele><time>2012-01-25T11:01:37Z</time></trkpt><trkpt lat="51.9460680708" lon="-1.8772803526"><ele>251.52</ele><time>2012-01-25T11:02:02Z</time></trkpt><trkpt lat="51.9460680708" lon="-1.8772803526"><ele>251.04</ele><time>2012-01-25T11:02:30Z</time></trkpt><trkpt lat="51.9460763689" lon="-1.8772878964"><ele>250.56</ele><time>2012-01-25T11:02:54Z</time></trkpt><trkpt lat="51.9460846670" lon="-1.8774469011"><ele>250.56</ele><time>2012-01-25T11:03:13Z</time></trkpt><trkpt lat="51.9460374769" lon="-1.8775908183"><ele>250.08</ele><time>2012-01-25T11:03:29Z</time></trkpt><trkpt lat="51.9459839165" lon="-1.8777846918"><ele>250.08</ele><time>2012-01-25T11:03:45Z</time></trkpt><trkpt lat="51.9460163545" lon="-1.8779308721"><ele>249.12</ele><time>2012-01-25T11:04:00Z</time></trkpt><trkpt lat="51.9460207969" lon="-1.8779740389"><ele>250.08</ele><time>2012-01-25T11:04:16Z</time></trkpt><trkpt lat="51.9460120797" lon="-1.8779977597"><ele>249.12</ele><time>2012-01-25T11:04:37Z</time></trkpt><trkpt lat="51.9460217189" lon="-1.8780101649"><ele>249.12</ele><time>2012-01-25T11:04:54Z</time></trkpt><trkpt lat="51.9459952321" lon="-1.8781073950"><ele>249.60</ele><time>2012-01-25T11:05:16Z</time></trkpt><trkpt lat="51.9460643828" lon="-1.8782587722"><ele>249.12</ele><time>2012-01-25T11:05:31Z</time></trkpt><trkpt lat="51.9460762013" lon="-1.8784304336"><ele>249.60</ele><time>2012-01-25T11:05:43Z</time></trkpt><trkpt lat="51.9460682385" lon="-1.8784875143"><ele>250.08</ele><time>2012-01-25T11:05:46Z</time></trkpt><trkpt lat="51.9460890256" lon="-1.8787146639"><ele>249.60</ele><time>2012-01-25T11:06:01Z</time></trkpt><trkpt lat="51.9461313542" lon="-1.8788970541"><ele>249.12</ele><time>2012-01-25T11:06:14Z</time></trkpt><trkpt lat="51.9461583439" lon="-1.8791497685"><ele>250.08</ele><time>2012-01-25T11:06:31Z</time></trkpt><trkpt lat="51.9461772032" lon="-1.8794239406"><ele>249.60</ele><time>2012-01-25T11:06:48Z</time></trkpt><trkpt lat="51.9462133292" lon="-1.8797347415"><ele>249.12</ele><time>2012-01-25T11:07:07Z</time></trkpt><trkpt lat="51.9462229684" lon="-1.8799428642"><ele>248.64</ele><time>2012-01-25T11:07:21Z</time></trkpt><trkpt lat="51.9462385587" lon="-1.8801513221"><ele>247.68</ele><time>2012-01-25T11:07:34Z</time></trkpt><trkpt lat="51.9462419115" lon="-1.8804052938"><ele>246.23</ele><time>2012-01-25T11:07:50Z</time></trkpt><trkpt lat="51.9462563284" lon="-1.8806181103"><ele>246.23</ele><time>2012-01-25T11:08:06Z</time></trkpt><trkpt lat="51.9462351222" lon="-1.8808844872"><ele>245.75</ele><time>2012-01-25T11:08:21Z</time></trkpt><trkpt lat="51.9462317694" lon="-1.8811254669"><ele>246.23</ele><time>2012-01-25T11:08:36Z</time></trkpt><trkpt lat="51.9462368824" lon="-1.8813537899"><ele>247.68</ele><time>2012-01-25T11:08:51Z</time></trkpt><trkpt lat="51.9462248124" lon="-1.8816028163"><ele>247.68</ele><time>2012-01-25T11:09:06Z</time></trkpt><trkpt lat="51.9462072104" lon="-1.8818332348"><ele>248.64</ele><time>2012-01-25T11:09:20Z</time></trkpt><trkpt lat="51.9461886864" lon="-1.8820400164"><ele>250.56</ele><time>2012-01-25T11:09:35Z</time></trkpt><trkpt lat="51.9461647980" lon="-1.8821885437"><ele>250.56</ele><time>2012-01-25T11:09:45Z</time></trkpt><trkpt lat="51.9461305160" lon="-1.8823684193"><ele>252.00</ele><time>2012-01-25T11:10:01Z</time></trkpt><trkpt lat="51.9461268280" lon="-1.8823996000"><ele>251.52</ele><time>2012-01-25T11:10:03Z</time></trkpt><trkpt lat="51.9460549951" lon="-1.8826345447"><ele>251.04</ele><time>2012-01-25T11:10:21Z</time></trkpt><trkpt lat="51.9460242335" lon="-1.8827521428"><ele>251.04</ele><time>2012-01-25T11:10:30Z</time></trkpt><trkpt lat="51.9459926337" lon="-1.8829184398"><ele>251.04</ele><time>2012-01-25T11:10:45Z</time></trkpt><trkpt lat="51.9459542446" lon="-1.8830658775"><ele>250.08</ele><time>2012-01-25T11:10:57Z</time></trkpt><trkpt lat="51.9459309429" lon="-1.8830711581"><ele>250.08</ele><time>2012-01-25T11:10:59Z</time></trkpt><trkpt lat="51.9458852615" lon="-1.8831390515"><ele>249.12</ele><time>2012-01-25T11:11:09Z</time></trkpt><trkpt lat="51.9459089823" lon="-1.8834345136"><ele>248.64</ele><time>2012-01-25T11:11:29Z</time></trkpt><trkpt lat="51.9458919670" lon="-1.8836808577"><ele>247.20</ele><time>2012-01-25T11:11:46Z</time></trkpt><trkpt lat="51.9458928052" lon="-1.8836912513"><ele>247.68</ele><time>2012-01-25T11:11:47Z</time></trkpt><trkpt lat="51.9458954036" lon="-1.8837392796"><ele>246.72</ele><time>2012-01-25T11:11:50Z</time></trkpt><trkpt lat="51.9459022768" lon="-1.8840136193"><ele>245.27</ele><time>2012-01-25T11:12:07Z</time></trkpt><trkpt lat="51.9459088147" lon="-1.8840370048"><ele>244.79</ele><time>2012-01-25T11:12:09Z</time></trkpt><trkpt lat="51.9459072221" lon="-1.8841287866"><ele>244.31</ele><time>2012-01-25T11:12:15Z</time></trkpt><trkpt lat="51.9459059648" lon="-1.8842370808"><ele>243.35</ele><time>2012-01-25T11:12:21Z</time></trkpt><trkpt lat="51.9459086470" lon="-1.8843239173"><ele>242.87</ele><time>2012-01-25T11:12:28Z</time></trkpt><trkpt lat="51.9459155202" lon="-1.8846503925"><ele>241.91</ele><time>2012-01-25T11:12:46Z</time></trkpt><trkpt lat="51.9459213875" lon="-1.8848753627"><ele>241.91</ele><time>2012-01-25T11:12:59Z</time></trkpt><trkpt lat="51.9459136762" lon="-1.8851124868"><ele>240.95</ele><time>2012-01-25T11:13:13Z</time></trkpt><trkpt lat="51.9459098205" lon="-1.8851397280"><ele>240.47</ele><time>2012-01-25T11:13:15Z</time></trkpt><trkpt lat="51.9458973315" lon="-1.8853761815"><ele>239.99</ele><time>2012-01-25T11:13:30Z</time></trkpt><trkpt lat="51.9459027797" lon="-1.8854156602"><ele>239.51</ele><time>2012-01-25T11:13:33Z</time></trkpt><trkpt lat="51.9458971638" lon="-1.8856713921"><ele>239.02</ele><time>2012-01-25T11:13:49Z</time></trkpt><trkpt lat="51.9459035341" lon="-1.8857866433"><ele>239.02</ele><time>2012-01-25T11:13:58Z</time></trkpt><trkpt lat="51.9459069706" lon="-1.8859598972"><ele>238.06</ele><time>2012-01-25T11:14:09Z</time></trkpt><trkpt lat="51.9459034503" lon="-1.8861475680"><ele>238.06</ele><time>2012-01-25T11:14:21Z</time></trkpt><trkpt lat="51.9458970800" lon="-1.8862202391"><ele>238.54</ele><time>2012-01-25T11:14:30Z</time></trkpt><trkpt lat="51.9459019415" lon="-1.8864823412"><ele>237.10</ele><time>2012-01-25T11:14:45Z</time></trkpt><trkpt lat="51.9459015224" lon="-1.8865133543"><ele>237.10</ele><time>2012-01-25T11:14:48Z</time></trkpt><trkpt lat="51.9459030312" lon="-1.8865490612"><ele>237.10</ele><time>2012-01-25T11:14:51Z</time></trkpt><trkpt lat="51.9459171128" lon="-1.8866898771"><ele>236.14</ele><time>2012-01-25T11:14:59Z</time></trkpt><trkpt lat="51.9459465332" lon="-1.8868809845"><ele>235.18</ele><time>2012-01-25T11:15:11Z</time></trkpt><trkpt lat="51.9459637161" lon="-1.8870952260"><ele>234.70</ele><time>2012-01-25T11:15:24Z</time></trkpt><trkpt lat="51.9460007641" lon="-1.8873118982"><ele>232.30</ele><time>2012-01-25T11:15:39Z</time></trkpt><trkpt lat="51.9460081402" lon="-1.8873430789"><ele>232.30</ele><time>2012-01-25T11:15:41Z</time></trkpt><trkpt lat="51.9460290112" lon="-1.8873813841"><ele>232.30</ele><time>2012-01-25T11:15:46Z</time></trkpt><trkpt lat="51.9460922107" lon="-1.8876790255"><ele>229.89</ele><time>2012-01-25T11:16:02Z</time></trkpt><trkpt lat="51.9461362995" lon="-1.8877948634"><ele>229.89</ele><time>2012-01-25T11:16:10Z</time></trkpt><trkpt lat="51.9462476112" lon="-1.8879340030"><ele>228.93</ele><time>2012-01-25T11:16:26Z</time></trkpt><trkpt lat="51.9463684782" lon="-1.8880025670"><ele>228.93</ele><time>2012-01-25T11:16:42Z</time></trkpt><trkpt lat="51.9464571588" lon="-1.8880454823"><ele>227.01</ele><time>2012-01-25T11:16:54Z</time></trkpt><trkpt lat="51.9465308357" lon="-1.8881054129"><ele>227.01</ele><time>2012-01-25T11:17:01Z</time></trkpt><trkpt lat="51.9465833064" lon="-1.8881549500"><ele>226.05</ele><time>2012-01-25T11:17:05Z</time></trkpt><trkpt lat="51.9466839731" lon="-1.8883076683"><ele>224.61</ele><time>2012-01-25T11:17:19Z</time></trkpt><trkpt lat="51.9467256311" lon="-1.8883464765"><ele>224.12</ele><time>2012-01-25T11:17:34Z</time></trkpt><trkpt lat="51.9468156528" lon="-1.8884030543"><ele>222.68</ele><time>2012-01-25T11:17:49Z</time></trkpt><trkpt lat="51.9468681235" lon="-1.8883987796"><ele>223.64</ele><time>2012-01-25T11:17:55Z</time></trkpt><trkpt lat="51.9469180796" lon="-1.8884165492"><ele>223.16</ele><time>2012-01-25T11:18:00Z</time></trkpt><trkpt lat="51.9470741507" lon="-1.8884457182"><ele>221.72</ele><time>2012-01-25T11:18:16Z</time></trkpt><trkpt lat="51.9472686946" lon="-1.8884664215"><ele>221.72</ele><time>2012-01-25T11:18:32Z</time></trkpt><trkpt lat="51.9474349078" lon="-1.8885767274"><ele>221.72</ele><time>2012-01-25T11:18:49Z</time></trkpt><trkpt lat="51.9475481473" lon="-1.8886691798"><ele>222.68</ele><time>2012-01-25T11:19:04Z</time></trkpt><trkpt lat="51.9476429466" lon="-1.8887671642"><ele>223.64</ele><time>2012-01-25T11:19:19Z</time></trkpt><trkpt lat="51.9477112591" lon="-1.8888750393"><ele>223.16</ele><time>2012-01-25T11:19:30Z</time></trkpt><trkpt lat="51.9478100818" lon="-1.8891013507"><ele>222.20</ele><time>2012-01-25T11:19:48Z</time></trkpt><trkpt lat="51.9478768017" lon="-1.8893135805"><ele>220.28</ele><time>2012-01-25T11:20:05Z</time></trkpt><trkpt lat="51.9478833396" lon="-1.8893285841"><ele>219.80</ele><time>2012-01-25T11:20:06Z</time></trkpt><trkpt lat="51.9479806535" lon="-1.8894538097"><ele>219.32</ele><time>2012-01-25T11:20:20Z</time></trkpt><trkpt lat="51.9480932225" lon="-1.8896518741"><ele>219.32</ele><time>2012-01-25T11:20:36Z</time></trkpt><trkpt lat="51.9481420051" lon="-1.8897201028"><ele>219.80</ele><time>2012-01-25T11:20:42Z</time></trkpt><trkpt lat="51.9482582621" lon="-1.8899184186"><ele>219.80</ele><time>2012-01-25T11:20:57Z</time></trkpt><trkpt lat="51.9483844936" lon="-1.8900896609"><ele>219.32</ele><time>2012-01-25T11:21:13Z</time></trkpt><trkpt lat="51.9485585019" lon="-1.8902687822"><ele>218.84</ele><time>2012-01-25T11:21:33Z</time></trkpt><trkpt lat="51.9487338513" lon="-1.8903774116"><ele>218.36</ele><time>2012-01-25T11:21:48Z</time></trkpt><trkpt lat="51.9488532934" lon="-1.8904401083"><ele>218.36</ele><time>2012-01-25T11:21:58Z</time></trkpt><trkpt lat="51.9489195105" lon="-1.8904923275"><ele>218.36</ele><time>2012-01-25T11:22:05Z</time></trkpt><trkpt lat="51.9491068460" lon="-1.8905814271"><ele>217.40</ele><time>2012-01-25T11:22:25Z</time></trkpt><trkpt lat="51.9492765795" lon="-1.8906554393"><ele>216.91</ele><time>2012-01-25T11:22:43Z</time></trkpt><trkpt lat="51.9494616520" lon="-1.8906691857"><ele>214.99</ele><time>2012-01-25T11:23:02Z</time></trkpt><trkpt lat="51.9495998695" lon="-1.8906501587"><ele>214.51</ele><time>2012-01-25T11:23:17Z</time></trkpt><trkpt lat="51.9497023802" lon="-1.8906185590"><ele>213.55</ele><time>2012-01-25T11:23:34Z</time></trkpt><trkpt lat="51.9498255104" lon="-1.8905611429"><ele>212.11</ele><time>2012-01-25T11:23:50Z</time></trkpt><trkpt lat="51.9499672484" lon="-1.8904482387"><ele>209.22</ele><time>2012-01-25T11:24:07Z</time></trkpt><trkpt lat="51.9501165301" lon="-1.8903314788"><ele>207.78</ele><time>2012-01-25T11:24:25Z</time></trkpt><trkpt lat="51.9502943940" lon="-1.8902018107"><ele>207.30</ele><time>2012-01-25T11:24:43Z</time></trkpt><trkpt lat="51.9504325278" lon="-1.8900463264"><ele>206.82</ele><time>2012-01-25T11:24:59Z</time></trkpt><trkpt lat="51.9504486211" lon="-1.8900286406"><ele>206.34</ele><time>2012-01-25T11:25:01Z</time></trkpt><trkpt lat="51.9505942985" lon="-1.8898535427"><ele>204.90</ele><time>2012-01-25T11:25:17Z</time></trkpt><trkpt lat="51.9506170135" lon="-1.8897774350"><ele>204.42</ele><time>2012-01-25T11:25:23Z</time></trkpt><trkpt lat="51.9507537223" lon="-1.8895830587"><ele>203.94</ele><time>2012-01-25T11:25:38Z</time></trkpt><trkpt lat="51.9508196041" lon="-1.8894602638"><ele>203.46</ele><time>2012-01-25T11:25:52Z</time></trkpt><trkpt lat="51.9508082885" lon="-1.8894266523"><ele>203.46</ele><time>2012-01-25T11:26:08Z</time></trkpt><trkpt lat="51.9509098772" lon="-1.8893485330"><ele>202.98</ele><time>2012-01-25T11:26:25Z</time></trkpt><trkpt lat="51.9509843923" lon="-1.8893101439"><ele>202.98</ele><time>2012-01-25T11:26:38Z</time></trkpt><trkpt lat="51.9510314986" lon="-1.8893290032"><ele>202.49</ele><time>2012-01-25T11:26:54Z</time></trkpt><trkpt lat="51.9511269685" lon="-1.8893578369"><ele>202.98</ele><time>2012-01-25T11:27:09Z</time></trkpt><trkpt lat="51.9512131345" lon="-1.8894043565"><ele>202.98</ele><time>2012-01-25T11:27:25Z</time></trkpt><trkpt lat="51.9513270445" lon="-1.8895183504"><ele>203.94</ele><time>2012-01-25T11:27:40Z</time></trkpt><trkpt lat="51.9514276274" lon="-1.8897610065"><ele>204.90</ele><time>2012-01-25T11:27:56Z</time></trkpt><trkpt lat="51.9514961913" lon="-1.8899819534"><ele>205.86</ele><time>2012-01-25T11:28:11Z</time></trkpt><trkpt lat="51.9515191577" lon="-1.8900949415"><ele>207.78</ele><time>2012-01-25T11:28:17Z</time></trkpt><trkpt lat="51.9515374303" lon="-1.8901632540"><ele>207.78</ele><time>2012-01-25T11:28:21Z</time></trkpt><trkpt lat="51.9515618216" lon="-1.8903859612"><ele>208.74</ele><time>2012-01-25T11:28:33Z</time></trkpt><trkpt lat="51.9515868835" lon="-1.8906944152"><ele>211.15</ele><time>2012-01-25T11:28:50Z</time></trkpt><trkpt lat="51.9516074192" lon="-1.8908895459"><ele>212.59</ele><time>2012-01-25T11:29:01Z</time></trkpt><trkpt lat="51.9516402762" lon="-1.8911888637"><ele>214.03</ele><time>2012-01-25T11:29:17Z</time></trkpt><trkpt lat="51.9516922440" lon="-1.8914139178"><ele>214.51</ele><time>2012-01-25T11:29:31Z</time></trkpt><trkpt lat="51.9516998716" lon="-1.8914612755"><ele>215.47</ele><time>2012-01-25T11:29:34Z</time></trkpt><trkpt lat="51.9517244305" lon="-1.8916309252"><ele>216.43</ele><time>2012-01-25T11:29:43Z</time></trkpt><trkpt lat="51.9517503306" lon="-1.8918205239"><ele>218.36</ele><time>2012-01-25T11:29:57Z</time></trkpt><trkpt lat="51.9517406914" lon="-1.8918333482"><ele>218.84</ele><time>2012-01-25T11:30:00Z</time></trkpt><trkpt lat="51.9517634064" lon="-1.8918703124"><ele>218.84</ele><time>2012-01-25T11:30:13Z</time></trkpt><trkpt lat="51.9517484028" lon="-1.8918727431"><ele>218.36</ele><time>2012-01-25T11:30:31Z</time></trkpt><trkpt lat="51.9517624844" lon="-1.8918948714"><ele>218.36</ele><time>2012-01-25T11:30:50Z</time></trkpt><trkpt lat="51.9517624844" lon="-1.8918948714"><ele>219.32</ele><time>2012-01-25T11:31:15Z</time></trkpt><trkpt lat="51.9517650828" lon="-1.8918958772"><ele>219.32</ele><time>2012-01-25T11:31:36Z</time></trkpt><trkpt lat="51.9517683517" lon="-1.8919014093"><ele>218.84</ele><time>2012-01-25T11:31:58Z</time></trkpt><trkpt lat="51.9517683517" lon="-1.8919014093"><ele>219.32</ele><time>2012-01-25T11:32:23Z</time></trkpt><trkpt lat="51.9517714530" lon="-1.8918643612"><ele>218.84</ele><time>2012-01-25T11:32:39Z</time></trkpt><trkpt lat="51.9517729618" lon="-1.8918641098"><ele>219.32</ele><time>2012-01-25T11:32:58Z</time></trkpt><trkpt lat="51.9517733809" lon="-1.8919184245"><ele>219.32</ele><time>2012-01-25T11:33:13Z</time></trkpt><trkpt lat="51.9517904799" lon="-1.8920092005"><ele>219.32</ele><time>2012-01-25T11:33:26Z</time></trkpt><trkpt lat="51.9518350717" lon="-1.8921261281"><ele>219.80</ele><time>2012-01-25T11:33:44Z</time></trkpt><trkpt lat="51.9518683478" lon="-1.8921507709"><ele>219.32</ele><time>2012-01-25T11:33:48Z</time></trkpt><trkpt lat="51.9519476406" lon="-1.8922838755"><ele>220.28</ele><time>2012-01-25T11:34:03Z</time></trkpt><trkpt lat="51.9520082418" lon="-1.8924314808"><ele>220.28</ele><time>2012-01-25T11:34:17Z</time></trkpt><trkpt lat="51.9520592876" lon="-1.8925275374"><ele>220.28</ele><time>2012-01-25T11:34:28Z</time></trkpt><trkpt lat="51.9520660769" lon="-1.8925587181"><ele>221.24</ele><time>2012-01-25T11:34:30Z</time></trkpt><trkpt lat="51.9520732015" lon="-1.8925883900"><ele>221.24</ele><time>2012-01-25T11:34:32Z</time></trkpt><trkpt lat="51.9521280192" lon="-1.8928067386"><ele>221.72</ele><time>2012-01-25T11:34:48Z</time></trkpt><trkpt lat="51.9521280192" lon="-1.8928067386"><ele>221.24</ele><time>2012-01-25T11:34:50Z</time></trkpt><trkpt lat="51.9521671627" lon="-1.8930062279"><ele>222.20</ele><time>2012-01-25T11:35:07Z</time></trkpt><trkpt lat="51.9522073958" lon="-1.8931839243"><ele>222.68</ele><time>2012-01-25T11:35:22Z</time></trkpt><trkpt lat="51.9522316195" lon="-1.8933948129"><ele>223.16</ele><time>2012-01-25T11:35:37Z</time></trkpt><trkpt lat="51.9522685837" lon="-1.8935928773"><ele>223.64</ele><time>2012-01-25T11:35:53Z</time></trkpt><trkpt lat="51.9522754569" lon="-1.8936466891"><ele>224.61</ele><time>2012-01-25T11:35:57Z</time></trkpt><trkpt lat="51.9523140974" lon="-1.8938708212"><ele>225.09</ele><time>2012-01-25T11:36:13Z</time></trkpt><trkpt lat="51.9523293525" lon="-1.8940247130"><ele>226.05</ele><time>2012-01-25T11:36:23Z</time></trkpt><trkpt lat="51.9523899537" lon="-1.8942330871"><ele>227.01</ele><time>2012-01-25T11:36:40Z</time></trkpt><trkpt lat="51.9524372276" lon="-1.8944195844"><ele>227.97</ele><time>2012-01-25T11:36:56Z</time></trkpt><trkpt lat="51.9524686597" lon="-1.8946386874"><ele>228.93</ele><time>2012-01-25T11:37:12Z</time></trkpt><trkpt lat="51.9524903689" lon="-1.8948199041"><ele>229.89</ele><time>2012-01-25T11:37:28Z</time></trkpt><trkpt lat="51.9524914585" lon="-1.8948303815"><ele>229.41</ele><time>2012-01-25T11:37:53Z</time></trkpt><trkpt lat="51.9524942245" lon="-1.8948419485"><ele>229.41</ele><time>2012-01-25T11:38:17Z</time></trkpt><trkpt lat="51.9524944760" lon="-1.8948432896"><ele>229.89</ele><time>2012-01-25T11:38:46Z</time></trkpt><trkpt lat="51.9524981640" lon="-1.8948757276"><ele>230.85</ele><time>2012-01-25T11:39:08Z</time></trkpt><trkpt lat="51.9525516406" lon="-1.8950804137"><ele>230.85</ele><time>2012-01-25T11:39:23Z</time></trkpt><trkpt lat="51.9525734335" lon="-1.8952936493"><ele>232.30</ele><time>2012-01-25T11:39:41Z</time></trkpt><trkpt lat="51.9526009262" lon="-1.8954953179"><ele>233.74</ele><time>2012-01-25T11:39:59Z</time></trkpt><trkpt lat="51.9526574202" lon="-1.8956808932"><ele>234.22</ele><time>2012-01-25T11:40:20Z</time></trkpt><trkpt lat="51.9527119864" lon="-1.8958937097"><ele>235.66</ele><time>2012-01-25T11:40:40Z</time></trkpt><trkpt lat="51.9527708273" lon="-1.8961608410"><ele>236.62</ele><time>2012-01-25T11:41:01Z</time></trkpt><trkpt lat="51.9528152514" lon="-1.8964111246"><ele>237.58</ele><time>2012-01-25T11:41:23Z</time></trkpt><trkpt lat="51.9528508745" lon="-1.8965490907"><ele>238.06</ele><time>2012-01-25T11:41:41Z</time></trkpt><trkpt lat="51.9529116433" lon="-1.8968392722"><ele>239.51</ele><time>2012-01-25T11:42:05Z</time></trkpt><trkpt lat="51.9529670477" lon="-1.8970344029"><ele>240.47</ele><time>2012-01-25T11:42:28Z</time></trkpt><trkpt lat="51.9530066941" lon="-1.8972819205"><ele>241.43</ele><time>2012-01-25T11:42:48Z</time></trkpt><trkpt lat="51.9530602545" lon="-1.8974718545"><ele>242.39</ele><time>2012-01-25T11:43:09Z</time></trkpt><trkpt lat="51.9530801196" lon="-1.8976895325"><ele>243.35</ele><time>2012-01-25T11:43:31Z</time></trkpt><trkpt lat="51.9531252980" lon="-1.8978642114"><ele>244.31</ele><time>2012-01-25T11:43:47Z</time></trkpt><trkpt lat="51.9531656150" lon="-1.8980694842"><ele>245.27</ele><time>2012-01-25T11:44:03Z</time></trkpt><trkpt lat="51.9532087818" lon="-1.8982751761"><ele>246.72</ele><time>2012-01-25T11:44:22Z</time></trkpt><trkpt lat="51.9532366097" lon="-1.8984755874"><ele>247.68</ele><time>2012-01-25T11:44:40Z</time></trkpt><trkpt lat="51.9532831293" lon="-1.8986393698"><ele>249.12</ele><time>2012-01-25T11:44:59Z</time></trkpt><trkpt lat="51.9533268828" lon="-1.8988298904"><ele>250.08</ele><time>2012-01-25T11:45:17Z</time></trkpt><trkpt lat="51.9533722289" lon="-1.8990497477"><ele>251.52</ele><time>2012-01-25T11:45:36Z</time></trkpt><trkpt lat="51.9534023199" lon="-1.8991976045"><ele>252.96</ele><time>2012-01-25T11:45:52Z</time></trkpt><trkpt lat="51.9534534495" lon="-1.8993461318"><ele>253.93</ele><time>2012-01-25T11:46:12Z</time></trkpt><trkpt lat="51.9534973707" lon="-1.8995358981"><ele>254.41</ele><time>2012-01-25T11:46:29Z</time></trkpt><trkpt lat="51.9535329100" lon="-1.8996440247"><ele>255.85</ele><time>2012-01-25T11:46:46Z</time></trkpt><trkpt lat="51.9535726402" lon="-1.8998067174"><ele>257.29</ele><time>2012-01-25T11:47:02Z</time></trkpt><trkpt lat="51.9536262006" lon="-1.8999280874"><ele>258.73</ele><time>2012-01-25T11:47:21Z</time></trkpt><trkpt lat="51.9536640868" lon="-1.9000523072"><ele>261.14</ele><time>2012-01-25T11:47:39Z</time></trkpt><trkpt lat="51.9536640868" lon="-1.9000523072"><ele>260.65</ele><time>2012-01-25T11:48:01Z</time></trkpt><trkpt lat="51.9536584709" lon="-1.9000844937"><ele>260.65</ele><time>2012-01-25T11:48:27Z</time></trkpt><trkpt lat="51.9536772463" lon="-1.9000382256"><ele>260.65</ele><time>2012-01-25T11:48:53Z</time></trkpt><trkpt lat="51.9537332375" lon="-1.8998848367"><ele>260.65</ele><time>2012-01-25T11:49:10Z</time></trkpt><trkpt lat="51.9538208283" lon="-1.8996952381"><ele>260.17</ele><time>2012-01-25T11:49:26Z</time></trkpt><trkpt lat="51.9538435433" lon="-1.8996168673"><ele>260.17</ele><time>2012-01-25T11:49:40Z</time></trkpt><trkpt lat="51.9538471475" lon="-1.8995957449"><ele>259.69</ele><time>2012-01-25T11:49:41Z</time></trkpt><trkpt lat="51.9538744725" lon="-1.8994877860"><ele>259.69</ele><time>2012-01-25T11:49:46Z</time></trkpt><trkpt lat="51.9539333135" lon="-1.8991997838"><ele>259.21</ele><time>2012-01-25T11:50:03Z</time></trkpt><trkpt lat="51.9539923221" lon="-1.8989499193"><ele>258.25</ele><time>2012-01-25T11:50:20Z</time></trkpt><trkpt lat="51.9540530071" lon="-1.8986840453"><ele>258.73</ele><time>2012-01-25T11:50:36Z</time></trkpt><trkpt lat="51.9541002810" lon="-1.8984534591"><ele>258.25</ele><time>2012-01-25T11:50:50Z</time></trkpt><trkpt lat="51.9541368261" lon="-1.8982236274"><ele>259.21</ele><time>2012-01-25T11:51:04Z</time></trkpt><trkpt lat="51.9542094972" lon="-1.8979290873"><ele>258.73</ele><time>2012-01-25T11:51:21Z</time></trkpt><trkpt lat="51.9542545918" lon="-1.8976591062"><ele>258.73</ele><time>2012-01-25T11:51:38Z</time></trkpt><trkpt lat="51.9542759657" lon="-1.8974245805"><ele>258.73</ele><time>2012-01-25T11:51:55Z</time></trkpt><trkpt lat="51.9542918913" lon="-1.8973057251"><ele>259.69</ele><time>2012-01-25T11:52:10Z</time></trkpt><trkpt lat="51.9543384947" lon="-1.8970816769"><ele>260.17</ele><time>2012-01-25T11:52:24Z</time></trkpt><trkpt lat="51.9544036221" lon="-1.8968149647"><ele>261.14</ele><time>2012-01-25T11:52:43Z</time></trkpt><trkpt lat="51.9544751197" lon="-1.8964899145"><ele>261.62</ele><time>2012-01-25T11:53:05Z</time></trkpt><trkpt lat="51.9545355532" lon="-1.8961910158"><ele>261.62</ele><time>2012-01-25T11:53:26Z</time></trkpt><trkpt lat="51.9545688294" lon="-1.8959854916"><ele>260.65</ele><time>2012-01-25T11:53:46Z</time></trkpt><trkpt lat="51.9546771236" lon="-1.8956197053"><ele>259.69</ele><time>2012-01-25T11:54:08Z</time></trkpt><trkpt lat="51.9547347911" lon="-1.8953622133"><ele>258.25</ele><time>2012-01-25T11:54:26Z</time></trkpt><trkpt lat="51.9547715876" lon="-1.8951915577"><ele>257.77</ele><time>2012-01-25T11:54:41Z</time></trkpt><trkpt lat="51.9548133295" lon="-1.8949764781"><ele>256.81</ele><time>2012-01-25T11:54:57Z</time></trkpt><trkpt lat="51.9548629504" lon="-1.8948105164"><ele>255.85</ele><time>2012-01-25T11:55:08Z</time></trkpt><trkpt lat="51.9548885990" lon="-1.8946427945"><ele>254.89</ele><time>2012-01-25T11:55:24Z</time></trkpt><trkpt lat="51.9549728371" lon="-1.8943777587"><ele>252.96</ele><time>2012-01-25T11:55:41Z</time></trkpt><trkpt lat="51.9550792873" lon="-1.8940019980"><ele>250.56</ele><time>2012-01-25T11:56:02Z</time></trkpt><trkpt lat="51.9552251324" lon="-1.8937363755"><ele>247.68</ele><time>2012-01-25T11:56:20Z</time></trkpt><trkpt lat="51.9553744979" lon="-1.8935100641"><ele>246.72</ele><time>2012-01-25T11:56:37Z</time></trkpt><trkpt lat="51.9553895015" lon="-1.8934795540"><ele>246.23</ele><time>2012-01-25T11:56:39Z</time></trkpt><trkpt lat="51.9554871507" lon="-1.8933156040"><ele>245.27</ele><time>2012-01-25T11:56:51Z</time></trkpt><trkpt lat="51.9556189142" lon="-1.8930348102"><ele>243.35</ele><time>2012-01-25T11:57:09Z</time></trkpt><trkpt lat="51.9557585567" lon="-1.8927391805"><ele>241.43</ele><time>2012-01-25T11:57:27Z</time></trkpt><trkpt lat="51.9558902364" lon="-1.8924835324"><ele>240.47</ele><time>2012-01-25T11:57:43Z</time></trkpt><trkpt lat="51.9560276158" lon="-1.8921797723"><ele>239.02</ele><time>2012-01-25T11:58:01Z</time></trkpt><trkpt lat="51.9561365806" lon="-1.8919280637"><ele>237.58</ele><time>2012-01-25T11:58:17Z</time></trkpt><trkpt lat="51.9561803341" lon="-1.8918352760"><ele>236.62</ele><time>2012-01-25T11:58:22Z</time></trkpt><trkpt lat="51.9563083258" lon="-1.8915762752"><ele>234.70</ele><time>2012-01-25T11:58:39Z</time></trkpt><trkpt lat="51.9564515725" lon="-1.8912975769"><ele>232.30</ele><time>2012-01-25T11:58:58Z</time></trkpt><trkpt lat="51.9565845933" lon="-1.8910057191"><ele>230.37</ele><time>2012-01-25T11:59:15Z</time></trkpt><trkpt lat="51.9566869363" lon="-1.8907448743"><ele>228.93</ele><time>2012-01-25T11:59:33Z</time></trkpt><trkpt lat="51.9567727670" lon="-1.8904910702"><ele>226.53</ele><time>2012-01-25T11:59:49Z</time></trkpt><trkpt lat="51.9569192827" lon="-1.8901987933"><ele>225.57</ele><time>2012-01-25T12:00:06Z</time></trkpt><trkpt lat="51.9570403174" lon="-1.8899498507"><ele>223.64</ele><time>2012-01-25T12:00:24Z</time></trkpt><trkpt lat="51.9571789540" lon="-1.8897512835"><ele>222.68</ele><time>2012-01-25T12:00:39Z</time></trkpt><trkpt lat="51.9573255535" lon="-1.8896025885"><ele>221.72</ele><time>2012-01-25T12:00:56Z</time></trkpt><trkpt lat="51.9573284034" lon="-1.8895999901"><ele>222.20</ele><time>2012-01-25T12:01:10Z</time></trkpt><trkpt lat="51.9573281519" lon="-1.8896074500"><ele>221.24</ele><time>2012-01-25T12:01:32Z</time></trkpt><trkpt lat="51.9573295768" lon="-1.8895924464"><ele>221.72</ele><time>2012-01-25T12:02:05Z</time></trkpt><trkpt lat="51.9573276490" lon="-1.8895694800"><ele>221.72</ele><time>2012-01-25T12:02:15Z</time></trkpt><trkpt lat="51.9573276490" lon="-1.8895694800"><ele>221.72</ele><time>2012-01-25T12:02:41Z</time></trkpt><trkpt lat="51.9574543834" lon="-1.8894066196"><ele>221.24</ele><time>2012-01-25T12:02:57Z</time></trkpt><trkpt lat="51.9576791860" lon="-1.8891742732"><ele>221.24</ele><time>2012-01-25T12:03:17Z</time></trkpt><trkpt lat="51.9577316567" lon="-1.8891278375"><ele>221.24</ele><time>2012-01-25T12:03:27Z</time></trkpt><trkpt lat="51.9577602390" lon="-1.8890962377"><ele>223.16</ele><time>2012-01-25T12:03:30Z</time></trkpt><trkpt lat="51.9578369334" lon="-1.8889227323"><ele>224.12</ele><time>2012-01-25T12:03:46Z</time></trkpt><trkpt lat="51.9578761607" lon="-1.8887472991"><ele>225.09</ele><time>2012-01-25T12:04:04Z</time></trkpt><trkpt lat="51.9578860514" lon="-1.8887042161"><ele>225.09</ele><time>2012-01-25T12:04:18Z</time></trkpt><trkpt lat="51.9579061680" lon="-1.8886713590"><ele>225.09</ele><time>2012-01-25T12:04:35Z</time></trkpt><trkpt lat="51.9579712115" lon="-1.8885220774"><ele>227.97</ele><time>2012-01-25T12:04:48Z</time></trkpt><trkpt lat="51.9579797611" lon="-1.8884960096"><ele>226.05</ele><time>2012-01-25T12:04:50Z</time></trkpt><trkpt lat="51.9580778293" lon="-1.8883093446"><ele>226.53</ele><time>2012-01-25T12:05:06Z</time></trkpt><trkpt lat="51.9581445493" lon="-1.8880701251"><ele>227.01</ele><time>2012-01-25T12:05:24Z</time></trkpt><trkpt lat="51.9581473991" lon="-1.8880662695"><ele>227.97</ele><time>2012-01-25T12:05:41Z</time></trkpt><trkpt lat="51.9582132809" lon="-1.8878908362"><ele>227.97</ele><time>2012-01-25T12:05:56Z</time></trkpt><trkpt lat="51.9582851976" lon="-1.8876574002"><ele>227.97</ele><time>2012-01-25T12:06:12Z</time></trkpt><trkpt lat="51.9583114330" lon="-1.8875921052"><ele>227.49</ele><time>2012-01-25T12:06:18Z</time></trkpt><trkpt lat="51.9583340641" lon="-1.8875424843"><ele>227.49</ele><time>2012-01-25T12:06:22Z</time></trkpt><trkpt lat="51.9584134407" lon="-1.8873094674"><ele>226.05</ele><time>2012-01-25T12:06:39Z</time></trkpt><trkpt lat="51.9584715273" lon="-1.8871191982"><ele>223.16</ele><time>2012-01-25T12:06:53Z</time></trkpt><trkpt lat="51.9585207291" lon="-1.8870048691"><ele>222.68</ele><time>2012-01-25T12:07:04Z</time></trkpt><trkpt lat="51.9585995190" lon="-1.8867916334"><ele>221.24</ele><time>2012-01-25T12:07:22Z</time></trkpt><trkpt lat="51.9586572703" lon="-1.8865785655"><ele>222.20</ele><time>2012-01-25T12:07:36Z</time></trkpt><trkpt lat="51.9586850982" lon="-1.8865187187"><ele>225.57</ele><time>2012-01-25T12:07:41Z</time></trkpt><trkpt lat="51.9586882833" lon="-1.8865117617"><ele>221.72</ele><time>2012-01-25T12:07:42Z</time></trkpt><trkpt lat="51.9586994313" lon="-1.8864434492"><ele>224.61</ele><time>2012-01-25T12:07:48Z</time></trkpt><trkpt lat="51.9587466214" lon="-1.8863041420"><ele>226.53</ele><time>2012-01-25T12:08:02Z</time></trkpt><trkpt lat="51.9588064682" lon="-1.8861522619"><ele>229.89</ele><time>2012-01-25T12:08:14Z</time></trkpt><trkpt lat="51.9588139281" lon="-1.8861324806"><ele>227.01</ele><time>2012-01-25T12:08:16Z</time></trkpt><trkpt lat="51.9588262495" lon="-1.8860885594"><ele>228.93</ele><time>2012-01-25T12:08:19Z</time></trkpt><trkpt lat="51.9588437676" lon="-1.8860420398"><ele>228.93</ele><time>2012-01-25T12:08:23Z</time></trkpt><trkpt lat="51.9588834979" lon="-1.8859699555"><ele>228.45</ele><time>2012-01-25T12:08:28Z</time></trkpt><trkpt lat="51.9588983338" lon="-1.8859342486"><ele>230.37</ele><time>2012-01-25T12:08:30Z</time></trkpt><trkpt lat="51.9589955639" lon="-1.8857148942"><ele>232.30</ele><time>2012-01-25T12:08:44Z</time></trkpt><trkpt lat="51.9590664748" lon="-1.8854779378"><ele>234.22</ele><time>2012-01-25T12:08:58Z</time></trkpt><trkpt lat="51.9591604359" lon="-1.8853153288"><ele>235.18</ele><time>2012-01-25T12:09:19Z</time></trkpt><trkpt lat="51.9591604359" lon="-1.8853153288"><ele>235.18</ele><time>2012-01-25T12:09:46Z</time></trkpt><trkpt lat="51.9591700751" lon="-1.8852443341"><ele>236.14</ele><time>2012-01-25T12:10:15Z</time></trkpt><trkpt lat="51.9592412375" lon="-1.8850655481"><ele>238.06</ele><time>2012-01-25T12:10:36Z</time></trkpt><trkpt lat="51.9593542255" lon="-1.8849223014"><ele>239.99</ele><time>2012-01-25T12:10:58Z</time></trkpt><trkpt lat="51.9594161678" lon="-1.8847562559"><ele>241.91</ele><time>2012-01-25T12:11:16Z</time></trkpt><trkpt lat="51.9594268966" lon="-1.8847114127"><ele>241.91</ele><time>2012-01-25T12:11:20Z</time></trkpt><trkpt lat="51.9595242944" lon="-1.8845509831"><ele>243.35</ele><time>2012-01-25T12:11:38Z</time></trkpt><trkpt lat="51.9596047606" lon="-1.8844154477"><ele>243.83</ele><time>2012-01-25T12:11:59Z</time></trkpt><trkpt lat="51.9596279785" lon="-1.8843649048"><ele>245.27</ele><time>2012-01-25T12:12:18Z</time></trkpt><trkpt lat="51.9596210215" lon="-1.8842856120"><ele>246.72</ele><time>2012-01-25T12:12:37Z</time></trkpt><trkpt lat="51.9596964587" lon="-1.8841797486"><ele>243.35</ele><time>2012-01-25T12:12:42Z</time></trkpt><trkpt lat="51.9597105402" lon="-1.8841626495"><ele>248.64</ele><time>2012-01-25T12:12:43Z</time></trkpt><trkpt lat="51.9597424753" lon="-1.8841219135"><ele>248.16</ele><time>2012-01-25T12:13:00Z</time></trkpt><trkpt lat="51.9597525336" lon="-1.8841014616"><ele>251.04</ele><time>2012-01-25T12:13:04Z</time></trkpt><trkpt lat="51.9597650226" lon="-1.8840887211"><ele>247.68</ele><time>2012-01-25T12:13:05Z</time></trkpt><trkpt lat="51.9597829599" lon="-1.8840760645"><ele>249.60</ele><time>2012-01-25T12:13:06Z</time></trkpt><trkpt lat="51.9598911703" lon="-1.8840230908"><ele>251.04</ele><time>2012-01-25T12:13:11Z</time></trkpt><trkpt lat="51.9599991292" lon="-1.8838644214"><ele>250.08</ele><time>2012-01-25T12:13:32Z</time></trkpt><trkpt lat="51.9600051641" lon="-1.8838334922"><ele>253.44</ele><time>2012-01-25T12:13:34Z</time></trkpt><trkpt lat="51.9600941800" lon="-1.8836158141"><ele>253.93</ele><time>2012-01-25T12:13:51Z</time></trkpt><trkpt lat="51.9601726346" lon="-1.8834119663"><ele>254.89</ele><time>2012-01-25T12:14:10Z</time></trkpt><trkpt lat="51.9602402765" lon="-1.8832674623"><ele>257.77</ele><time>2012-01-25T12:14:27Z</time></trkpt><trkpt lat="51.9602551963" lon="-1.8832470942"><ele>257.77</ele><time>2012-01-25T12:14:46Z</time></trkpt><trkpt lat="51.9603269454" lon="-1.8830591720"><ele>260.65</ele><time>2012-01-25T12:14:57Z</time></trkpt><trkpt lat="51.9603664242" lon="-1.8829678930"><ele>260.65</ele><time>2012-01-25T12:15:18Z</time></trkpt><trkpt lat="51.9603664242" lon="-1.8829678930"><ele>260.65</ele><time>2012-01-25T12:15:47Z</time></trkpt><trkpt lat="51.9603685196" lon="-1.8829922006"><ele>258.73</ele><time>2012-01-25T12:16:11Z</time></trkpt><trkpt lat="51.9604081661" lon="-1.8830560707"><ele>257.77</ele><time>2012-01-25T12:16:27Z</time></trkpt><trkpt lat="51.9604133628" lon="-1.8830563221"><ele>257.29</ele><time>2012-01-25T12:16:44Z</time></trkpt><trkpt lat="51.9604136981" lon="-1.8830807135"><ele>256.33</ele><time>2012-01-25T12:17:00Z</time></trkpt><trkpt lat="51.9603820983" lon="-1.8830212019"><ele>252.96</ele><time>2012-01-25T12:17:06Z</time></trkpt><trkpt lat="51.9603794161" lon="-1.8830136582"><ele>257.77</ele><time>2012-01-25T12:17:07Z</time></trkpt><trkpt lat="51.9603769854" lon="-1.8830051925"><ele>264.98</ele><time>2012-01-25T12:17:08Z</time></trkpt><trkpt lat="51.9603764825" lon="-1.8830003310"><ele>256.33</ele><time>2012-01-25T12:17:09Z</time></trkpt><trkpt lat="51.9603756443" lon="-1.8829934578"><ele>263.06</ele><time>2012-01-25T12:17:10Z</time></trkpt><trkpt lat="51.9603749737" lon="-1.8829886802"><ele>258.73</ele><time>2012-01-25T12:17:11Z</time></trkpt><trkpt lat="51.9603749737" lon="-1.8829886802"><ele>253.93</ele><time>2012-01-25T12:17:15Z</time></trkpt><trkpt lat="51.9603764825" lon="-1.8829813879"><ele>263.06</ele><time>2012-01-25T12:17:16Z</time></trkpt><trkpt lat="51.9603749737" lon="-1.8829726707"><ele>261.62</ele><time>2012-01-25T12:17:17Z</time></trkpt><trkpt lat="51.9604210742" lon="-1.8827651348"><ele>261.62</ele><time>2012-01-25T12:17:34Z</time></trkpt><trkpt lat="51.9604261871" lon="-1.8827575073"><ele>261.62</ele><time>2012-01-25T12:17:35Z</time></trkpt><trkpt lat="51.9604466390" lon="-1.8827238120"><ele>261.62</ele><time>2012-01-25T12:17:38Z</time></trkpt><trkpt lat="51.9605553523" lon="-1.8825269211"><ele>264.02</ele><time>2012-01-25T12:17:55Z</time></trkpt><trkpt lat="51.9605871197" lon="-1.8824454490"><ele>264.50</ele><time>2012-01-25T12:18:02Z</time></trkpt><trkpt lat="51.9607621338" lon="-1.8822009489"><ele>265.46</ele><time>2012-01-25T12:18:23Z</time></trkpt><trkpt lat="51.9608041272" lon="-1.8821609672"><ele>266.42</ele><time>2012-01-25T12:18:29Z</time></trkpt><trkpt lat="51.9609959889" lon="-1.8819949217"><ele>267.38</ele><time>2012-01-25T12:18:49Z</time></trkpt><trkpt lat="51.9611223880" lon="-1.8818707019"><ele>267.38</ele><time>2012-01-25T12:19:09Z</time></trkpt><trkpt lat="51.9612045307" lon="-1.8817746453"><ele>267.38</ele><time>2012-01-25T12:19:24Z</time></trkpt><trkpt lat="51.9612630364" lon="-1.8818909861"><ele>266.42</ele><time>2012-01-25T12:19:42Z</time></trkpt><trkpt lat="51.9612534810" lon="-1.8819164671"><ele>266.42</ele><time>2012-01-25T12:20:13Z</time></trkpt><trkpt lat="51.9612522237" lon="-1.8819126114"><ele>265.94</ele><time>2012-01-25T12:20:44Z</time></trkpt><trkpt lat="51.9612622820" lon="-1.8818443827"><ele>268.35</ele><time>2012-01-25T12:20:47Z</time></trkpt><trkpt lat="51.9612622820" lon="-1.8818278704"><ele>266.90</ele><time>2012-01-25T12:20:48Z</time></trkpt><trkpt lat="51.9612589292" lon="-1.8817158882"><ele>268.83</ele><time>2012-01-25T12:20:53Z</time></trkpt><trkpt lat="51.9612672273" lon="-1.8816988729"><ele>268.35</ele><time>2012-01-25T12:20:54Z</time></trkpt><trkpt lat="51.9612986594" lon="-1.8816433847"><ele>267.86</ele><time>2012-01-25T12:20:59Z</time></trkpt><trkpt lat="51.9613604341" lon="-1.8816006370"><ele>267.86</ele><time>2012-01-25T12:21:04Z</time></trkpt><trkpt lat="51.9614274055" lon="-1.8813523650"><ele>268.35</ele><time>2012-01-25T12:21:22Z</time></trkpt><trkpt lat="51.9614428282" lon="-1.8812831305"><ele>268.83</ele><time>2012-01-25T12:21:38Z</time></trkpt><trkpt lat="51.9614421576" lon="-1.8812734075"><ele>268.83</ele><time>2012-01-25T12:21:42Z</time></trkpt><trkpt lat="51.9614740089" lon="-1.8811465893"><ele>268.83</ele><time>2012-01-25T12:21:48Z</time></trkpt><trkpt lat="51.9615869131" lon="-1.8807167653"><ele>267.86</ele><time>2012-01-25T12:22:09Z</time></trkpt><trkpt lat="51.9616355281" lon="-1.8805027753"><ele>266.42</ele><time>2012-01-25T12:22:25Z</time></trkpt><trkpt lat="51.9616509508" lon="-1.8804907892"><ele>266.42</ele><time>2012-01-25T12:22:31Z</time></trkpt><trkpt lat="51.9616518728" lon="-1.8804419227"><ele>265.94</ele><time>2012-01-25T12:22:34Z</time></trkpt><trkpt lat="51.9616817962" lon="-1.8803490512"><ele>265.46</ele><time>2012-01-25T12:22:50Z</time></trkpt><trkpt lat="51.9616826344" lon="-1.8803350534"><ele>265.46</ele><time>2012-01-25T12:22:54Z</time></trkpt><trkpt lat="51.9616889209" lon="-1.8802969996"><ele>264.98</ele><time>2012-01-25T12:22:57Z</time></trkpt><trkpt lat="51.9616946205" lon="-1.8802676629"><ele>264.50</ele><time>2012-01-25T12:23:14Z</time></trkpt><trkpt lat="51.9617005717" lon="-1.8802233227"><ele>264.02</ele><time>2012-01-25T12:23:17Z</time></trkpt><trkpt lat="51.9617573172" lon="-1.8799804989"><ele>260.65</ele><time>2012-01-25T12:23:31Z</time></trkpt><trkpt lat="51.9618048426" lon="-1.8797545228"><ele>257.77</ele><time>2012-01-25T12:23:43Z</time></trkpt><trkpt lat="51.9618404657" lon="-1.8795418739"><ele>254.89</ele><time>2012-01-25T12:23:58Z</time></trkpt><trkpt lat="51.9618825428" lon="-1.8793205079"><ele>251.04</ele><time>2012-01-25T12:24:12Z</time></trkpt><trkpt lat="51.9618945289" lon="-1.8792811967"><ele>250.08</ele><time>2012-01-25T12:24:14Z</time></trkpt><trkpt lat="51.9619538728" lon="-1.8789969664"><ele>247.20</ele><time>2012-01-25T12:24:26Z</time></trkpt><trkpt lat="51.9619754143" lon="-1.8789201044"><ele>245.75</ele><time>2012-01-25T12:24:30Z</time></trkpt><trkpt lat="51.9620577246" lon="-1.8785892706"><ele>242.87</ele><time>2012-01-25T12:24:45Z</time></trkpt><trkpt lat="51.9621015619" lon="-1.8784787972"><ele>239.99</ele><time>2012-01-25T12:24:51Z</time></trkpt><trkpt lat="51.9622552022" lon="-1.8781606201"><ele>236.62</ele><time>2012-01-25T12:25:08Z</time></trkpt><trkpt lat="51.9623843674" lon="-1.8779144436"><ele>233.26</ele><time>2012-01-25T12:25:24Z</time></trkpt><trkpt lat="51.9624638278" lon="-1.8777628988"><ele>231.81</ele><time>2012-01-25T12:25:33Z</time></trkpt><trkpt lat="51.9624821004" lon="-1.8776839413"><ele>230.37</ele><time>2012-01-25T12:25:49Z</time></trkpt><trkpt lat="51.9625867903" lon="-1.8776206579"><ele>228.93</ele><time>2012-01-25T12:26:07Z</time></trkpt><trkpt lat="51.9626448769" lon="-1.8773861323"><ele>227.01</ele><time>2012-01-25T12:26:24Z</time></trkpt><trkpt lat="51.9626719505" lon="-1.8772558775"><ele>225.09</ele><time>2012-01-25T12:26:44Z</time></trkpt><trkpt lat="51.9626719505" lon="-1.8772558775"><ele>226.53</ele><time>2012-01-25T12:26:52Z</time></trkpt><trkpt lat="51.9626922347" lon="-1.8773225136"><ele>225.57</ele><time>2012-01-25T12:27:15Z</time></trkpt><trkpt lat="51.9627120160" lon="-1.8773162272"><ele>225.57</ele><time>2012-01-25T12:27:32Z</time></trkpt><trkpt lat="51.9626848586" lon="-1.8771770038"><ele>223.16</ele><time>2012-01-25T12:27:40Z</time></trkpt><trkpt lat="51.9626420271" lon="-1.8769304082"><ele>220.76</ele><time>2012-01-25T12:27:57Z</time></trkpt><trkpt lat="51.9626122713" lon="-1.8767832220"><ele>219.80</ele><time>2012-01-25T12:28:12Z</time></trkpt><trkpt lat="51.9625357445" lon="-1.8764614407"><ele>216.91</ele><time>2012-01-25T12:28:32Z</time></trkpt><trkpt lat="51.9624819327" lon="-1.8761650566"><ele>214.99</ele><time>2012-01-25T12:28:56Z</time></trkpt><trkpt lat="51.9623824395" lon="-1.8760631327"><ele>213.07</ele><time>2012-01-25T12:29:11Z</time></trkpt><trkpt lat="51.9623169769" lon="-1.8758755457"><ele>212.59</ele><time>2012-01-25T12:29:26Z</time></trkpt><trkpt lat="51.9623642508" lon="-1.8756400980"><ele>211.15</ele><time>2012-01-25T12:29:44Z</time></trkpt><trkpt lat="51.9624789990" lon="-1.8753989507"><ele>210.19</ele><time>2012-01-25T12:30:05Z</time></trkpt><trkpt lat="51.9626654964" lon="-1.8752146326"><ele>211.15</ele><time>2012-01-25T12:30:24Z</time></trkpt><trkpt lat="51.9627460465" lon="-1.8750126287"><ele>213.55</ele><time>2012-01-25T12:30:39Z</time></trkpt><trkpt lat="51.9627665821" lon="-1.8749295641"><ele>213.07</ele><time>2012-01-25T12:30:44Z</time></trkpt><trkpt lat="51.9628230762" lon="-1.8747370318"><ele>214.51</ele><time>2012-01-25T12:30:57Z</time></trkpt><trkpt lat="51.9628610462" lon="-1.8745078705"><ele>214.99</ele><time>2012-01-25T12:31:14Z</time></trkpt><trkpt lat="51.9628580287" lon="-1.8743821420"><ele>215.95</ele><time>2012-01-25T12:31:20Z</time></trkpt><trkpt lat="51.9629067276" lon="-1.8740368076"><ele>218.36</ele><time>2012-01-25T12:31:36Z</time></trkpt><trkpt lat="51.9629547559" lon="-1.8738217279"><ele>218.36</ele><time>2012-01-25T12:31:52Z</time></trkpt><trkpt lat="51.9629876968" lon="-1.8736618012"><ele>218.84</ele><time>2012-01-25T12:32:02Z</time></trkpt><trkpt lat="51.9630052149" lon="-1.8735451251"><ele>219.80</ele><time>2012-01-25T12:32:11Z</time></trkpt><trkpt lat="51.9631943945" lon="-1.8732463941"><ele>220.28</ele><time>2012-01-25T12:32:29Z</time></trkpt><trkpt lat="51.9632832427" lon="-1.8729307316"><ele>222.20</ele><time>2012-01-25T12:32:47Z</time></trkpt><trkpt lat="51.9632241502" lon="-1.8727871496"><ele>221.24</ele><time>2012-01-25T12:33:04Z</time></trkpt><trkpt lat="51.9632260781" lon="-1.8727172446"><ele>221.24</ele><time>2012-01-25T12:33:27Z</time></trkpt><trkpt lat="51.9632092305" lon="-1.8727138918"><ele>221.72</ele><time>2012-01-25T12:33:33Z</time></trkpt><trkpt lat="51.9630129263" lon="-1.8726770114"><ele>220.28</ele><time>2012-01-25T12:33:51Z</time></trkpt><trkpt lat="51.9629989285" lon="-1.8726848904"><ele>220.28</ele><time>2012-01-25T12:33:52Z</time></trkpt><trkpt lat="51.9628217351" lon="-1.8727447372"><ele>220.28</ele><time>2012-01-25T12:34:09Z</time></trkpt><trkpt lat="51.9628114253" lon="-1.8727303203"><ele>219.80</ele><time>2012-01-25T12:34:26Z</time></trkpt><trkpt lat="51.9628114253" lon="-1.8727303203"><ele>219.80</ele><time>2012-01-25T12:34:50Z</time></trkpt><trkpt lat="51.9628125150" lon="-1.8727305718"><ele>220.28</ele><time>2012-01-25T12:34:57Z</time></trkpt></trkseg></trk></gpx>